Darstellungsparameter: Aktuell verwendete Einstellungen:
Skalierung der Graphiken ... ?
xyx+y,   Skalierungsfaktor:      Skalierung: Modus: x, Faktor: 1
Darstellungszeitraum ... ?
Vom - - bis: - -   Zeitraum: 19.11.2008 - 23.11.2008
Min/Max/Avg-Anzeige ... ?
Zeige MMA aktuell
Zeige MMA Monat
Zeige MMA alles
Zeige --A aktuell
Zeige --A Monat
Zeige --A alles
Keine MMA-Anzeige
MMA:
Average (ber die Originaldaten)
MMA-Basis: 17.04.2019 - 19.05.2019
Quicknavigation für Darstellung... ?
Tage:      1T, 2T, 3T, 5T -1T -2T -3T -5T +1T +2T +3T +5T
Wochen: 1W, 2W, 3W -1W -2W -3W +1W +2W +3W
Monate: 1M, 3M, 6M -1M -3M -6M +1M +3M +6M
Jahre:    1J, 3J, 5J, 10J -1J -3J -5J -10J +1J +3J +5J +10J
Nutze für die Darstellung ... ?
Originaldaten oder Mittelwerte auf ...
Stundenbasis Tagesbasis Wochenbasis
Monatsbasis Jahresbasis      Datenbasis: Original-Daten
Darstellen als:
Statistik (Auto) Statistik J:M      Darstellung:
Zur Graphik,    zurück zur Übersicht aller Sensoren.
 
Tabellarische Datenbersicht: ?
 
Sensor: Nr:Datum:Temp:Abs-Feuchte:Windchill:Wind:
Aussen-T/F 1 19-11-2008 00:09:03 7.3 C 7.27 g/m*3 7.3 C 0 km/h
2 19-11-2008 00:21:02 7.3 C 7.27 g/m*3 7.3 C 0 km/h
3 19-11-2008 00:33:02 7.2 C 7.14 g/m*3 7.2 C 0 km/h
4 19-11-2008 00:45:01 7 C 7.05 g/m*3 7 C 0 km/h
5 19-11-2008 00:57:01 7.3 C 7.19 g/m*3 7.3 C 0 km/h
6 19-11-2008 01:09:02 7.2 C 6.99 g/m*3 7.2 C 0 km/h
7 19-11-2008 01:21:01 7 C 6.9 g/m*3 7 C 0 km/h
8 19-11-2008 01:33:02 7.5 C 7.04 g/m*3 7.5 C 0 km/h
9 19-11-2008 01:45:02 7.6 C 6.85 g/m*3 7.6 C 0 km/h
10 19-11-2008 01:57:02 7.9 C 6.82 g/m*3 7.9 C 0 km/h
11 19-11-2008 02:09:02 7.6 C 6.44 g/m*3 7.6 C 0 km/h
12 19-11-2008 02:21:02 7.5 C 6.4 g/m*3 7.5 C 0 km/h
13 19-11-2008 02:33:02 7.3 C 6.4 g/m*3 7.3 C 0 km/h
14 19-11-2008 02:45:01 7.1 C 6.4 g/m*3 7.1 C 0 km/h
15 19-11-2008 02:57:01 6.7 C 6.38 g/m*3 6.7 C 0 km/h
16 19-11-2008 03:09:01 6.4 C 6.41 g/m*3 6.4 C 0 km/h
17 19-11-2008 03:21:01 6 C 6.24 g/m*3 6 C 0 km/h
18 19-11-2008 03:33:02 5.8 C 6.3 g/m*3 5.8 C 0 km/h
19 19-11-2008 03:45:02 5.6 C 6.22 g/m*3 5.6 C 0 km/h
20 19-11-2008 03:57:02 5.7 C 6.33 g/m*3 5.7 C 0 km/h
21 19-11-2008 04:09:01 5.6 C 6.29 g/m*3 5.6 C 0 km/h
22 19-11-2008 04:21:02 5.5 C 6.32 g/m*3 5.5 C 0 km/h
23 19-11-2008 04:33:01 5.1 C 6.09 g/m*3 5.1 C 0 km/h
24 19-11-2008 04:45:01 4.8 C 6.04 g/m*3 4.8 C 0 km/h
25 19-11-2008 04:57:01 4.6 C 6.02 g/m*3 4.6 C 0 km/h
Sensor: Nr:Datum:Temp:Abs-Feuchte:Windchill:Wind:
Aussen-T/F 26 19-11-2008 05:09:01 4.4 C 5.94 g/m*3 4.4 C 0 km/h
27 19-11-2008 05:21:02 4.3 C 5.9 g/m*3 4.3 C 0 km/h
28 19-11-2008 05:33:01 4.4 C 6.01 g/m*3 4.4 C 0 km/h
29 19-11-2008 05:45:01 4.5 C 6.05 g/m*3 4.5 C 0 km/h
30 19-11-2008 05:57:01 4.8 C 6.17 g/m*3 4.8 C 0 km/h
31 19-11-2008 06:09:01 4.8 C 6.17 g/m*3 4.8 C 0 km/h
32 19-11-2008 06:21:01 4.7 C 6.06 g/m*3 4.7 C 0 km/h
33 19-11-2008 06:33:01 4.7 C 6 g/m*3 4.7 C 0 km/h
34 19-11-2008 06:45:01 5 C 5.98 g/m*3 5 C 0 km/h
35 19-11-2008 06:57:01 5.3 C 5.82 g/m*3 5.3 C 0 km/h
36 19-11-2008 07:09:02 5.2 C 5.65 g/m*3 5.2 C 0 km/h
37 19-11-2008 07:21:02 5.3 C 5.68 g/m*3 5.3 C 0 km/h
38 19-11-2008 07:33:01 5.6 C 5.66 g/m*3 5.6 C 0 km/h
39 19-11-2008 07:45:01 5.6 C 5.66 g/m*3 5.6 C 0 km/h
40 19-11-2008 07:57:01 5.6 C 5.66 g/m*3 5.6 C 0 km/h
41 19-11-2008 08:09:01 5.6 C 5.73 g/m*3 5.6 C 0 km/h
42 19-11-2008 08:21:01 5.8 C 5.8 g/m*3 5.8 C 0 km/h
43 19-11-2008 08:33:01 5.9 C 5.77 g/m*3 5.9 C 0 km/h
44 19-11-2008 08:45:01 6.1 C 5.7 g/m*3 6.1 C 0 km/h
45 19-11-2008 08:57:01 6.3 C 5.7 g/m*3 6.3 C 0 km/h
46 19-11-2008 09:09:02 6.7 C 5.7 g/m*3 6.7 C 0 km/h
47 19-11-2008 09:21:01 6.8 C 5.74 g/m*3 6.8 C 0 km/h
48 19-11-2008 09:33:01 6.8 C 5.74 g/m*3 6.8 C 0 km/h
49 19-11-2008 09:45:01 7 C 5.66 g/m*3 7 C 0 km/h
50 19-11-2008 09:57:01 7.2 C 5.81 g/m*3 7.2 C 0 km/h
Sensor: Nr:Datum:Temp:Abs-Feuchte:Windchill:Wind:
Aussen-T/F 51 19-11-2008 10:09:02 7.4 C 5.73 g/m*3 7.4 C 0 km/h
52 19-11-2008 10:21:01 7.4 C 5.81 g/m*3 7.4 C 0 km/h
53 19-11-2008 10:33:02 7.5 C 5.84 g/m*3 7.5 C 0 km/h
54 19-11-2008 10:45:01 7.6 C 5.88 g/m*3 7.6 C 0 km/h
55 19-11-2008 10:57:01 7.8 C 6.04 g/m*3 7.8 C 0 km/h
56 19-11-2008 11:09:02 7.8 C 5.96 g/m*3 7.8 C 0 km/h
57 19-11-2008 11:21:01 7.9 C 6 g/m*3 7.9 C 0 km/h
58 19-11-2008 11:33:02 8.1 C 5.99 g/m*3 8.1 C 0 km/h
59 19-11-2008 11:45:02 8.5 C 6.06 g/m*3 8.5 C 0 km/h
60 19-11-2008 11:57:02 8.9 C 6.13 g/m*3 8.9 C 0 km/h
61 19-11-2008 12:09:01 9.1 C 6.12 g/m*3 9.1 C 0 km/h
62 19-11-2008 12:21:01 9 C 6.08 g/m*3 9 C 0 km/h
63 19-11-2008 12:33:01 9.1 C 6.12 g/m*3 9.1 C 0 km/h
64 19-11-2008 12:45:01 9.6 C 6.32 g/m*3 9.6 C 0 km/h
65 19-11-2008 12:57:01 9.8 C 6.22 g/m*3 9.8 C 0 km/h
66 19-11-2008 13:09:02 9.9 C 6.26 g/m*3 9.9 C 0 km/h
67 19-11-2008 13:21:01 9.9 C 6.16 g/m*3 9.9 C 0 km/h
68 19-11-2008 13:33:02 10 C 6.01 g/m*3 10 C 0 km/h
69 19-11-2008 13:45:01 9.9 C 5.98 g/m*3 9.9 C 0 km/h
70 19-11-2008 13:57:01 10 C 5.92 g/m*3 10 C 0 km/h
71 19-11-2008 14:09:02 10.2 C 5.9 g/m*3 10.2 C 0 km/h
72 19-11-2008 14:21:01 10 C 5.83 g/m*3 10 C 0 km/h
73 19-11-2008 14:33:02 10.2 C 6 g/m*3 10.2 C 0 km/h
74 19-11-2008 14:45:01 10.2 C 5.8 g/m*3 10.2 C 0 km/h
75 19-11-2008 14:57:01 10.2 C 5.71 g/m*3 10.2 C 0 km/h
Sensor: Nr:Datum:Temp:Abs-Feuchte:Windchill:Wind:
Aussen-T/F 76 19-11-2008 15:09:02 10.1 C 5.58 g/m*3 10.1 C 0 km/h
77 19-11-2008 15:21:01 10 C 5.45 g/m*3 10 C 0 km/h
78 19-11-2008 15:33:02 9.8 C 5.38 g/m*3 9.8 C 0 km/h
79 19-11-2008 15:45:01 9.7 C 5.53 g/m*3 9.7 C 0 km/h
80 19-11-2008 15:57:01 9.7 C 5.44 g/m*3 9.7 C 0 km/h
81 19-11-2008 16:09:01 9.7 C 5.53 g/m*3 9.7 C 0 km/h
82 19-11-2008 16:21:01 9.6 C 5.5 g/m*3 9.6 C 0 km/h
83 19-11-2008 16:33:02 9.5 C 5.55 g/m*3 9.5 C 0 km/h
84 19-11-2008 16:45:01 9.5 C 5.55 g/m*3 9.5 C 0 km/h
85 19-11-2008 16:57:02 9.5 C 5.64 g/m*3 9.5 C 0 km/h
86 19-11-2008 17:09:01 9.3 C 5.66 g/m*3 9.3 C 0 km/h
87 19-11-2008 17:21:01 9.3 C 5.66 g/m*3 9.3 C 0 km/h
88 19-11-2008 17:33:01 9.3 C 5.66 g/m*3 9.3 C 0 km/h
89 19-11-2008 17:45:02 9.3 C 5.66 g/m*3 9.3 C 0 km/h
90 19-11-2008 17:57:02 9.2 C 5.71 g/m*3 9.2 C 0 km/h
91 19-11-2008 18:09:01 9.1 C 5.68 g/m*3 9.1 C 0 km/h
92 19-11-2008 18:21:02 9.1 C 5.77 g/m*3 9.1 C 0 km/h
93 19-11-2008 18:33:01 9 C 5.73 g/m*3 9 C 0 km/h
94 19-11-2008 18:45:01 9 C 5.73 g/m*3 9 C 0 km/h
95 19-11-2008 18:57:01 9 C 5.73 g/m*3 9 C 0 km/h
96 19-11-2008 19:09:01 8.9 C 5.87 g/m*3 8.9 C 0 km/h
97 19-11-2008 19:21:01 8.9 C 5.96 g/m*3 8.9 C 0 km/h
98 19-11-2008 19:33:01 8.8 C 5.92 g/m*3 8.8 C 0 km/h
99 19-11-2008 19:45:01 8.8 C 6.01 g/m*3 8.8 C 0 km/h
100 19-11-2008 19:57:01 8.7 C 5.97 g/m*3 8.7 C 0 km/h
Sensor: Nr:Datum:Temp:Abs-Feuchte:Windchill:Wind:
Aussen-T/F 101 19-11-2008 20:09:01 8.7 C 6.05 g/m*3 8.7 C 0 km/h
102 19-11-2008 20:21:01 8.8 C 6.09 g/m*3 8.8 C 0 km/h
103 19-11-2008 20:33:01 8.8 C 6.09 g/m*3 8.8 C 0 km/h
104 19-11-2008 20:45:01 8.7 C 6.05 g/m*3 8.7 C 0 km/h
105 19-11-2008 20:57:01 8.8 C 6.18 g/m*3 8.8 C 0 km/h
106 19-11-2008 21:09:02 8.8 C 6.18 g/m*3 8.8 C 0 km/h
107 19-11-2008 21:21:01 8.8 C 6.18 g/m*3 8.8 C 0 km/h
108 19-11-2008 21:33:01 8.8 C 6.27 g/m*3 8.8 C 0 km/h
109 19-11-2008 21:45:01 8.7 C 6.23 g/m*3 8.7 C 0 km/h
110 19-11-2008 21:57:01 8.6 C 6.27 g/m*3 8.6 C 0 km/h
111 19-11-2008 22:09:02 8.6 C 6.27 g/m*3 8.6 C 0 km/h
112 19-11-2008 22:21:01 8.5 C 6.23 g/m*3 8.5 C 0 km/h
113 19-11-2008 22:33:01 8.2 C 6.2 g/m*3 8.2 C 0 km/h
114 19-11-2008 22:45:02 8.5 C 6.23 g/m*3 8.5 C 0 km/h
115 19-11-2008 22:57:02 8.6 C 6.19 g/m*3 8.6 C 0 km/h
116 19-11-2008 23:09:01 8.4 C 6.02 g/m*3 8.4 C 0 km/h
117 19-11-2008 23:21:02 8.2 C 5.95 g/m*3 8.2 C 0 km/h
118 19-11-2008 23:33:01 8.2 C 5.95 g/m*3 8.2 C 0 km/h
119 19-11-2008 23:45:02 8.4 C 6.02 g/m*3 8.4 C 0 km/h
120 19-11-2008 23:57:02 8.4 C 5.94 g/m*3 8.4 C 0 km/h
121 20-11-2008 00:09:01 8.5 C 5.98 g/m*3 8.5 C 0 km/h
122 20-11-2008 00:21:02 8.5 C 5.98 g/m*3 8.5 C 0 km/h
123 20-11-2008 00:33:01 8.4 C 6.02 g/m*3 8.4 C 0 km/h
124 20-11-2008 00:45:01 8.3 C 6.07 g/m*3 8.3 C 0 km/h
125 20-11-2008 00:57:01 8.5 C 6.06 g/m*3 8.5 C 0 km/h
Sensor: Nr:Datum:Temp:Abs-Feuchte:Windchill:Wind:
Aussen-T/F 126 20-11-2008 01:09:02 8.5 C 5.98 g/m*3 8.5 C 0 km/h
127 20-11-2008 01:21:01 8.2 C 5.95 g/m*3 8.2 C 0 km/h
128 20-11-2008 01:33:01 8.4 C 6.02 g/m*3 8.4 C 0 km/h
129 20-11-2008 01:45:01 8.5 C 5.98 g/m*3 8.5 C 0 km/h
130 20-11-2008 01:57:01 8.5 C 5.89 g/m*3 8.5 C 0 km/h
131 20-11-2008 02:09:02 8.5 C 5.89 g/m*3 8.5 C 0 km/h
132 20-11-2008 02:21:01 8.2 C 5.95 g/m*3 8.2 C 0 km/h
133 20-11-2008 02:33:02 8.3 C 6.07 g/m*3 8.3 C 0 km/h
134 20-11-2008 02:46:05 8.5 C 6.06 g/m*3 8.5 C 0 km/h
135 20-11-2008 02:58:05 8.7 C 6.14 g/m*3 8.7 C 0 km/h
136 20-11-2008 03:10:05 8.9 C 6.13 g/m*3 8.9 C 0 km/h
137 20-11-2008 03:22:05 8.9 C 6.13 g/m*3 8.9 C 0 km/h
138 20-11-2008 03:34:02 9.2 C 6.16 g/m*3 9.2 C 0 km/h
139 20-11-2008 03:46:02 9.1 C 6.12 g/m*3 9.1 C 0 km/h
140 20-11-2008 03:58:02 9.2 C 6.07 g/m*3 9.2 C 0 km/h
141 20-11-2008 04:10:02 9.2 C 6.07 g/m*3 9.2 C 0 km/h
142 20-11-2008 04:22:02 9.2 C 6.16 g/m*3 9.2 C 0 km/h
143 20-11-2008 04:34:02 9.2 C 6.25 g/m*3 9.2 C 0 km/h
144 20-11-2008 04:46:01 9.3 C 6.29 g/m*3 9.3 C 0 km/h
145 20-11-2008 04:58:01 9.3 C 6.29 g/m*3 9.3 C 0 km/h
146 20-11-2008 05:10:02 9.3 C 6.29 g/m*3 9.3 C 0 km/h
147 20-11-2008 05:22:02 9.4 C 6.33 g/m*3 9.4 C 0 km/h
148 20-11-2008 05:34:02 9.4 C 6.33 g/m*3 9.4 C 0 km/h
149 20-11-2008 05:46:01 9.4 C 6.33 g/m*3 9.4 C 0 km/h
150 20-11-2008 05:58:01 9.4 C 6.42 g/m*3 9.4 C 0 km/h
Sensor: Nr:Datum:Temp:Abs-Feuchte:Windchill:Wind:
Aussen-T/F 151 20-11-2008 06:10:02 9.4 C 6.42 g/m*3 9.4 C 0 km/h
152 20-11-2008 06:22:01 9.4 C 6.42 g/m*3 9.4 C 0 km/h
153 20-11-2008 06:34:02 9.3 C 6.38 g/m*3 9.3 C 0 km/h
154 20-11-2008 06:46:01 9.4 C 6.42 g/m*3 9.4 C 0 km/h
155 20-11-2008 06:58:01 9.6 C 6.5 g/m*3 9.6 C 0 km/h
156 20-11-2008 07:10:02 9.7 C 6.45 g/m*3 9.7 C 0 km/h
157 20-11-2008 07:22:02 9.8 C 6.49 g/m*3 9.8 C 0 km/h
158 20-11-2008 07:34:03 9.8 C 6.49 g/m*3 9.8 C 0 km/h
159 20-11-2008 07:46:02 9.4 C 6.6 g/m*3 9.4 C 0 km/h
160 20-11-2008 07:58:02 9.6 C 6.69 g/m*3 9.6 C 0 km/h
161 20-11-2008 08:10:03 9.7 C 6.64 g/m*3 9.7 C 0 km/h
162 20-11-2008 08:22:02 9.8 C 6.59 g/m*3 9.8 C 0 km/h
163 20-11-2008 08:34:02 9.9 C 6.54 g/m*3 9.9 C 0 km/h
164 20-11-2008 08:46:02 9.9 C 6.54 g/m*3 9.9 C 0 km/h
165 20-11-2008 08:58:02 9.9 C 6.54 g/m*3 9.9 C 0 km/h
166 20-11-2008 09:10:01 10 C 6.39 g/m*3 10 C 0 km/h
167 20-11-2008 09:22:02 10.1 C 6.52 g/m*3 10.1 C 0 km/h
168 20-11-2008 09:34:02 10.2 C 6.57 g/m*3 10.2 C 0 km/h
169 20-11-2008 09:46:02 10.2 C 6.66 g/m*3 10.2 C 0 km/h
170 20-11-2008 09:58:02 10.1 C 6.71 g/m*3 10.1 C 0 km/h
171 20-11-2008 10:10:02 10 C 6.77 g/m*3 10 C 0 km/h
172 20-11-2008 10:22:02 10 C 6.86 g/m*3 10 C 0 km/h
173 20-11-2008 10:34:02 10.2 C 6.95 g/m*3 10.2 C 0 km/h
174 20-11-2008 10:46:02 10.2 C 6.95 g/m*3 10.2 C 0 km/h
175 20-11-2008 10:58:02 10.2 C 6.95 g/m*3 10.2 C 0 km/h
Sensor: Nr:Datum:Temp:Abs-Feuchte:Windchill:Wind:
Aussen-T/F 176 20-11-2008 11:10:02 10.1 C 7 g/m*3 10.1 C 0 km/h
177 20-11-2008 11:22:02 9.9 C 7.28 g/m*3 9.9 C 0 km/h
178 20-11-2008 11:34:01 10 C 7.24 g/m*3 10 C 0 km/h
179 20-11-2008 11:46:02 9.9 C 7.38 g/m*3 9.9 C 0 km/h
180 20-11-2008 11:58:02 9.8 C 7.42 g/m*3 9.8 C 0 km/h
181 20-11-2008 12:10:02 10 C 7.33 g/m*3 10 C 0 km/h
182 20-11-2008 12:22:01 10 C 7.24 g/m*3 10 C 0 km/h
183 20-11-2008 12:34:01 10.1 C 7.19 g/m*3 10.1 C 0 km/h
184 20-11-2008 12:46:01 10.1 C 7.19 g/m*3 10.1 C 0 km/h
185 20-11-2008 12:58:01 9.6 C 7.42 g/m*3 9.6 C 0 km/h
186 20-11-2008 13:10:02 9.5 C 7.65 g/m*3 9.5 C 0 km/h
187 20-11-2008 13:22:01 9.5 C 7.74 g/m*3 9.5 C 0 km/h
188 20-11-2008 13:34:02 9.6 C 7.79 g/m*3 9.6 C 0 km/h
189 20-11-2008 13:46:02 9.8 C 7.7 g/m*3 9.8 C 0 km/h
190 20-11-2008 13:58:02 10 C 7.52 g/m*3 10 C 0 km/h
191 20-11-2008 14:10:02 10.1 C 7.56 g/m*3 10.1 C 0 km/h
192 20-11-2008 14:22:02 10 C 7.52 g/m*3 10 C 0 km/h
193 20-11-2008 14:34:02 10 C 7.52 g/m*3 10 C 0 km/h
194 20-11-2008 14:46:02 10.2 C 7.61 g/m*3 10.2 C 0 km/h
195 20-11-2008 14:58:02 10.5 C 7.37 g/m*3 10.5 C 0 km/h
196 20-11-2008 15:10:03 10.8 C 7.22 g/m*3 10.8 C 0 km/h
197 20-11-2008 15:22:02 11 C 6.91 g/m*3 11 C 0 km/h
198 20-11-2008 15:34:03 11.1 C 6.45 g/m*3 11.1 C 0 km/h
199 20-11-2008 15:46:02 11.3 C 6.22 g/m*3 11.3 C 0 km/h
200 20-11-2008 15:58:02 11.3 C 6.02 g/m*3 11.3 C 0 km/h
Sensor: Nr:Datum:Temp:Abs-Feuchte:Windchill:Wind:
Aussen-T/F 201 20-11-2008 16:10:01 11.3 C 5.92 g/m*3 11.3 C 0 km/h
202 20-11-2008 16:22:02 11.2 C 5.98 g/m*3 11.2 C 0 km/h
203 20-11-2008 16:34:02 11.1 C 6.04 g/m*3 11.1 C 0 km/h
204 20-11-2008 16:46:02 10.9 C 6.37 g/m*3 10.9 C 0 km/h
205 20-11-2008 16:58:02 10.8 C 6.62 g/m*3 10.8 C 0 km/h
206 20-11-2008 17:10:02 10.7 C 6.68 g/m*3 10.7 C 0 km/h
207 20-11-2008 17:22:02 10.6 C 6.83 g/m*3 10.6 C 0 km/h
208 20-11-2008 17:34:02 10.4 C 6.94 g/m*3 10.4 C 0 km/h
209 20-11-2008 17:46:02 10.3 C 6.99 g/m*3 10.3 C 0 km/h
210 20-11-2008 17:58:02 10.3 C 6.99 g/m*3 10.3 C 0 km/h
211 20-11-2008 18:10:02 10 C 7.05 g/m*3 10 C 0 km/h
212 20-11-2008 18:22:02 9.6 C 7.42 g/m*3 9.6 C 0 km/h
213 20-11-2008 18:34:02 9.3 C 7.64 g/m*3 9.3 C 0 km/h
214 20-11-2008 18:46:01 9 C 7.49 g/m*3 9 C 0 km/h
215 20-11-2008 18:58:01 8.9 C 7.62 g/m*3 8.9 C 0 km/h
216 20-11-2008 19:10:02 8.7 C 7.7 g/m*3 8.7 C 0 km/h
217 20-11-2008 19:22:02 8.6 C 7.39 g/m*3 8.6 C 0 km/h
218 20-11-2008 19:34:02 9 C 6.88 g/m*3 9 C 0 km/h
219 20-11-2008 19:46:02 9.1 C 6.74 g/m*3 9.1 C 0 km/h
220 20-11-2008 19:58:02 9 C 6.7 g/m*3 9 C 0 km/h
221 20-11-2008 20:10:02 9.2 C 6.43 g/m*3 9.2 C 0 km/h
222 20-11-2008 20:22:01 9.2 C 6.16 g/m*3 9.2 C 0 km/h
223 20-11-2008 20:34:02 9.3 C 6.2 g/m*3 9.3 C 0 km/h
224 20-11-2008 20:46:02 9.3 C 6.11 g/m*3 9.3 C 0 km/h
225 20-11-2008 20:58:02 9.3 C 6.11 g/m*3 9.3 C 0 km/h
Sensor: Nr:Datum:Temp:Abs-Feuchte:Windchill:Wind:
Aussen-T/F 226 20-11-2008 21:10:02 9.3 C 6.02 g/m*3 9.3 C 0 km/h
227 20-11-2008 21:22:02 9.4 C 5.97 g/m*3 9.4 C 0 km/h
228 20-11-2008 21:34:02 9 C 6.17 g/m*3 9 C 0 km/h
229 20-11-2008 21:46:02 8.7 C 6.31 g/m*3 8.7 C 0 km/h
230 20-11-2008 21:58:02 8.8 C 6.35 g/m*3 8.8 C 0 km/h
231 20-11-2008 22:10:03 9.1 C 5.94 g/m*3 9.1 C 0 km/h
232 20-11-2008 22:23:02 9 C 6.08 g/m*3 9 C 0 km/h
233 20-11-2008 22:35:02 9.1 C 6.03 g/m*3 9.1 C 0 km/h
234 20-11-2008 22:47:02 8.9 C 6.13 g/m*3 8.9 C 0 km/h
235 20-11-2008 22:59:02 8.9 C 6.04 g/m*3 8.9 C 0 km/h
236 20-11-2008 23:11:02 9.1 C 5.94 g/m*3 9.1 C 0 km/h
237 20-11-2008 23:23:02 8.9 C 5.96 g/m*3 8.9 C 0 km/h
238 20-11-2008 23:35:02 8.9 C 5.96 g/m*3 8.9 C 0 km/h
239 20-11-2008 23:47:02 8.8 C 5.92 g/m*3 8.8 C 0 km/h
240 20-11-2008 23:59:02 8.9 C 6.04 g/m*3 8.9 C 0 km/h
241 21-11-2008 00:11:02 8.8 C 6.01 g/m*3 8.8 C 0 km/h
242 21-11-2008 00:23:02 8.9 C 5.96 g/m*3 8.9 C 0 km/h
243 21-11-2008 00:35:02 8.9 C 5.78 g/m*3 8.9 C 0 km/h
244 21-11-2008 00:47:02 8.6 C 5.76 g/m*3 8.6 C 0 km/h
245 21-11-2008 00:59:02 8.8 C 5.83 g/m*3 8.8 C 0 km/h
246 21-11-2008 01:11:02 8.9 C 5.87 g/m*3 8.9 C 0 km/h
247 21-11-2008 01:23:02 9 C 5.82 g/m*3 9 C 0 km/h
248 21-11-2008 01:35:02 8.9 C 5.96 g/m*3 8.9 C 0 km/h
249 21-11-2008 01:47:02 8.9 C 5.96 g/m*3 8.9 C 0 km/h
250 21-11-2008 01:59:02 8.9 C 5.96 g/m*3 8.9 C 0 km/h
Sensor: Nr:Datum:Temp:Abs-Feuchte:Windchill:Wind:
Aussen-T/F 251 21-11-2008 02:11:02 8.9 C 5.87 g/m*3 8.9 C 0 km/h
252 21-11-2008 02:23:02 8.9 C 5.78 g/m*3 8.9 C 0 km/h
253 21-11-2008 02:35:03 8.9 C 5.69 g/m*3 8.9 C 0 km/h
254 21-11-2008 02:47:03 9 C 5.64 g/m*3 9 C 0 km/h
255 21-11-2008 02:59:03 8.8 C 5.83 g/m*3 8.8 C 0 km/h
256 21-11-2008 03:11:03 8.7 C 5.88 g/m*3 8.7 C 0 km/h
257 21-11-2008 03:23:03 8.6 C 5.84 g/m*3 8.6 C 0 km/h
258 21-11-2008 03:35:03 8.5 C 5.89 g/m*3 8.5 C 0 km/h
259 21-11-2008 03:47:03 8.6 C 5.84 g/m*3 8.6 C 0 km/h
260 21-11-2008 03:59:03 8.3 C 6.07 g/m*3 8.3 C 0 km/h
261 21-11-2008 04:11:03 7.8 C 6.28 g/m*3 7.8 C 0 km/h
262 21-11-2008 04:23:03 7.5 C 6.32 g/m*3 7.5 C 0 km/h
263 21-11-2008 04:35:03 7.9 C 6.24 g/m*3 7.9 C 0 km/h
264 21-11-2008 04:47:03 8.1 C 6.07 g/m*3 8.1 C 0 km/h
265 21-11-2008 04:59:03 8 C 6.2 g/m*3 8 C 0 km/h
266 21-11-2008 05:11:03 8 C 6.12 g/m*3 8 C 0 km/h
267 21-11-2008 05:23:03 8.1 C 6.24 g/m*3 8.1 C 0 km/h
268 21-11-2008 05:35:03 7.8 C 6.45 g/m*3 7.8 C 0 km/h
269 21-11-2008 05:47:03 7.6 C 6.53 g/m*3 7.6 C 0 km/h
270 21-11-2008 05:59:03 7.5 C 6.56 g/m*3 7.5 C 0 km/h
271 21-11-2008 06:11:03 7.4 C 6.6 g/m*3 7.4 C 0 km/h
272 21-11-2008 06:23:03 7.5 C 6.64 g/m*3 7.5 C 0 km/h
273 21-11-2008 06:35:04 7.5 C 6.56 g/m*3 7.5 C 0 km/h
274 21-11-2008 06:47:04 7.5 C 6.56 g/m*3 7.5 C 0 km/h
275 21-11-2008 06:59:04 7.5 C 6.56 g/m*3 7.5 C 0 km/h
Sensor: Nr:Datum:Temp:Abs-Feuchte:Windchill:Wind:
Aussen-T/F 276 21-11-2008 07:11:03 7.6 C 6.53 g/m*3 7.6 C 0 km/h
277 21-11-2008 07:23:03 7.8 C 6.53 g/m*3 7.8 C 0 km/h
278 21-11-2008 07:35:02 8 C 6.37 g/m*3 8 C 0 km/h
279 21-11-2008 07:47:02 8.1 C 6.24 g/m*3 8.1 C 0 km/h
280 21-11-2008 07:59:02 8.2 C 6.11 g/m*3 8.2 C 0 km/h
281 21-11-2008 08:11:02 8.5 C 6.06 g/m*3 8.5 C 0 km/h
282 21-11-2008 08:23:02 8.7 C 5.88 g/m*3 8.7 C 0 km/h
283 21-11-2008 08:35:02 8.7 C 5.79 g/m*3 8.7 C 0 km/h
284 21-11-2008 08:47:01 6.4 C 5.81 g/m*3 6.4 C 0 km/h
285 21-11-2008 08:59:01 6.5 C 6.07 g/m*3 6.5 C 0 km/h
286 21-11-2008 09:11:02 6.9 C 6.16 g/m*3 6.9 C 0 km/h
287 21-11-2008 09:23:01 7.5 C 6.16 g/m*3 7.5 C 0 km/h
288 21-11-2008 09:35:01 7.4 C 5.65 g/m*3 7.4 C 0 km/h
289 21-11-2008 09:47:01 5.8 C 5.73 g/m*3 5.8 C 0 km/h
290 21-11-2008 09:59:01 5.7 C 5.91 g/m*3 5.7 C 0 km/h
291 21-11-2008 10:11:02 6.3 C 6.14 g/m*3 6.3 C 0 km/h
292 21-11-2008 10:23:01 6.6 C 6.19 g/m*3 6.6 C 0 km/h
293 21-11-2008 10:35:02 4.9 C 5.67 g/m*3 4.9 C 0 km/h
294 21-11-2008 10:47:02 4.6 C 5.76 g/m*3 4.6 C 0 km/h
295 21-11-2008 10:59:02 4.8 C 5.9 g/m*3 4.8 C 0 km/h
296 21-11-2008 11:11:02 5 C 5.84 g/m*3 5 C 0 km/h
297 21-11-2008 11:23:02 5.2 C 5.85 g/m*3 5.2 C 0 km/h
298 21-11-2008 11:35:02 5.2 C 5.78 g/m*3 5.2 C 0 km/h
299 21-11-2008 11:47:01 5.2 C 5.78 g/m*3 5.2 C 0 km/h
300 21-11-2008 11:59:01 5.4 C 5.44 g/m*3 5.4 C 0 km/h
Sensor: Nr:Datum:Temp:Abs-Feuchte:Windchill:Wind:
Aussen-T/F 301 21-11-2008 12:11:02 5.4 C 4.81 g/m*3 5.4 C 0 km/h
302 21-11-2008 12:23:01 5.9 C 4.83 g/m*3 5.9 C 0 km/h
303 21-11-2008 12:35:02 6.6 C 4.91 g/m*3 6.6 C 0 km/h
304 21-11-2008 12:47:02 7 C 4.49 g/m*3 7 C 0 km/h
305 21-11-2008 12:59:02 6.6 C 4.38 g/m*3 6.6 C 0 km/h
306 21-11-2008 13:11:01 5.9 C 4.61 g/m*3 5.9 C 0 km/h
307 21-11-2008 13:23:02 6.3 C 4.37 g/m*3 6.3 C 0 km/h
308 21-11-2008 13:35:02 6.6 C 3.93 g/m*3 6.6 C 0 km/h
309 21-11-2008 13:47:01 5.3 C 4.37 g/m*3 5.3 C 0 km/h
310 21-11-2008 13:59:02 5.1 C 4.31 g/m*3 5.1 C 0 km/h
311 21-11-2008 14:11:01 5.5 C 4.07 g/m*3 5.5 C 0 km/h
312 21-11-2008 14:23:01 5.7 C 3.77 g/m*3 5.7 C 0 km/h
313 21-11-2008 14:35:02 5.4 C 3.77 g/m*3 5.4 C 0 km/h
314 21-11-2008 14:47:02 5.3 C 3.74 g/m*3 5.3 C 0 km/h
315 21-11-2008 14:59:02 5.1 C 3.69 g/m*3 5.1 C 0 km/h
316 21-11-2008 15:11:02 5.1 C 3.76 g/m*3 5.1 C 0 km/h
317 21-11-2008 15:23:02 2.6 C 4.34 g/m*3 2.6 C 0 km/h
318 21-11-2008 15:35:02 2 C 4.56 g/m*3 2 C 0 km/h
319 21-11-2008 15:47:02 2.1 C 4.87 g/m*3 2.1 C 0 km/h
320 21-11-2008 15:59:02 2.1 C 4.92 g/m*3 2.1 C 0 km/h
321 21-11-2008 16:11:02 2.2 C 5.01 g/m*3 2.2 C 0 km/h
322 21-11-2008 16:23:02 2.4 C 5.08 g/m*3 2.4 C 0 km/h
323 21-11-2008 16:35:03 2.2 C 4.9 g/m*3 2.2 C 0 km/h
324 21-11-2008 16:47:02 2.3 C 4.76 g/m*3 2.3 C 0 km/h
325 21-11-2008 16:59:02 2.5 C 4.66 g/m*3 2.5 C 0 km/h
Sensor: Nr:Datum:Temp:Abs-Feuchte:Windchill:Wind:
Aussen-T/F 326 21-11-2008 17:11:02 2.3 C 4.48 g/m*3 2.3 C 0 km/h
327 21-11-2008 17:23:02 2.6 C 4.57 g/m*3 2.6 C 0 km/h
328 21-11-2008 17:35:02 2.6 C 4.57 g/m*3 2.6 C 0 km/h
329 21-11-2008 17:47:02 2.1 C 4.53 g/m*3 2.1 C 0 km/h
330 21-11-2008 17:59:02 2.4 C 4.68 g/m*3 2.4 C 0 km/h
331 21-11-2008 18:11:02 2.2 C 4.39 g/m*3 2.2 C 0 km/h
332 21-11-2008 18:23:02 2.3 C 4.37 g/m*3 2.3 C 0 km/h
333 21-11-2008 18:35:02 2.2 C 4.39 g/m*3 2.2 C 0 km/h
334 21-11-2008 18:47:02 2.1 C 4.53 g/m*3 2.1 C 0 km/h
335 21-11-2008 18:59:02 1.7 C 4.46 g/m*3 1.7 C 0 km/h
336 21-11-2008 19:11:01 1.3 C 4.56 g/m*3 1.3 C 0 km/h
337 21-11-2008 19:23:02 1.3 C 4.61 g/m*3 1.3 C 0 km/h
338 21-11-2008 19:35:02 1 C 4.52 g/m*3 1 C 0 km/h
339 21-11-2008 19:47:02 0.7 C 4.47 g/m*3 0.7 C 0 km/h
340 21-11-2008 19:59:02 0.7 C 4.53 g/m*3 0.7 C 0 km/h
341 21-11-2008 20:11:02 1 C 4.67 g/m*3 1 C 0 km/h
342 21-11-2008 20:23:02 1.1 C 4.76 g/m*3 1.1 C 0 km/h
343 21-11-2008 20:35:02 1 C 4.72 g/m*3 1 C 0 km/h
344 21-11-2008 20:47:02 0.9 C 4.74 g/m*3 0.9 C 0 km/h
345 21-11-2008 20:59:02 1.1 C 4.6 g/m*3 1.1 C 0 km/h
346 21-11-2008 21:11:02 1.1 C 4.39 g/m*3 1.1 C 0 km/h
347 21-11-2008 21:23:02 1.2 C 4.21 g/m*3 1.2 C 0 km/h
348 21-11-2008 21:35:02 1.2 C 4.1 g/m*3 1.2 C 0 km/h
349 21-11-2008 21:47:02 1.3 C 4.08 g/m*3 1.3 C 0 km/h
350 21-11-2008 21:59:02 1.4 C 4.05 g/m*3 1.4 C 0 km/h
Sensor: Nr:Datum:Temp:Abs-Feuchte:Windchill:Wind:
Aussen-T/F 351 21-11-2008 22:11:03 1.4 C 4.11 g/m*3 1.4 C 0 km/h
352 21-11-2008 22:23:02 1.6 C 4.16 g/m*3 1.6 C 0 km/h
353 21-11-2008 22:35:03 1.5 C 4.24 g/m*3 1.5 C 0 km/h
354 21-11-2008 22:47:02 1.5 C 4.3 g/m*3 1.5 C 0 km/h
355 21-11-2008 22:59:02 1.5 C 4.3 g/m*3 1.5 C 0 km/h
356 21-11-2008 23:11:02 1.7 C 4.3 g/m*3 1.7 C 0 km/h
357 21-11-2008 23:23:01 1.8 C 4.33 g/m*3 1.8 C 0 km/h
358 21-11-2008 23:35:02 1.8 C 4.33 g/m*3 1.8 C 0 km/h
359 21-11-2008 23:47:02 2 C 4.28 g/m*3 2 C 0 km/h
360 21-11-2008 23:59:02 2 C 4.22 g/m*3 2 C 0 km/h
361 22-11-2008 00:11:01 2.2 C 4.11 g/m*3 2.2 C 0 km/h
362 22-11-2008 00:23:01 2.1 C 4.2 g/m*3 2.1 C 0 km/h
363 22-11-2008 00:35:01 1.6 C 4.33 g/m*3 1.6 C 0 km/h
364 22-11-2008 00:48:03 1.2 C 4.42 g/m*3 1.2 C 0 km/h
365 22-11-2008 01:00:03 0.6 C 4.39 g/m*3 0.6 C 0 km/h
366 22-11-2008 01:12:03 0.4 C 4.43 g/m*3 0.4 C 0 km/h
367 22-11-2008 01:24:03 0.3 C 4.45 g/m*3 0.3 C 0 km/h
368 22-11-2008 01:36:03 0.1 C 4.44 g/m*3 0.1 C 0 km/h
369 22-11-2008 01:48:03 0 C 4.41 g/m*3 0 C 0 km/h
370 22-11-2008 02:00:03 0 C 4.41 g/m*3 0 C 0 km/h
371 22-11-2008 02:12:03 0 C 4.41 g/m*3 0 C 0 km/h
372 22-11-2008 02:24:03 -0.1 C 4.38 g/m*3 -0.1 C 0 km/h
373 22-11-2008 02:36:04 0 C 4.41 g/m*3 0 C 0 km/h
374 22-11-2008 02:48:04 0 C 4.41 g/m*3 0 C 0 km/h
375 22-11-2008 03:00:04 0.1 C 4.39 g/m*3 0.1 C 0 km/h
Sensor: Nr:Datum:Temp:Abs-Feuchte:Windchill:Wind:
Aussen-T/F 376 22-11-2008 03:12:04 0.2 C 4.37 g/m*3 0.2 C 0 km/h
377 22-11-2008 03:24:04 0.2 C 4.32 g/m*3 0.2 C 0 km/h
378 22-11-2008 03:36:04 0.4 C 4.28 g/m*3 0.4 C 0 km/h
379 22-11-2008 03:48:04 0.3 C 4.16 g/m*3 0.3 C 0 km/h
380 22-11-2008 04:00:04 0.3 C 4.16 g/m*3 0.3 C 0 km/h
381 22-11-2008 04:12:04 0.4 C 4.18 g/m*3 0.4 C 0 km/h
382 22-11-2008 04:24:04 0.5 C 4.16 g/m*3 0.5 C 0 km/h
383 22-11-2008 04:36:04 0.6 C 4.04 g/m*3 0.6 C 0 km/h
384 22-11-2008 04:48:04 0.5 C 3.96 g/m*3 0.5 C 0 km/h
385 22-11-2008 05:00:04 0.4 C 3.93 g/m*3 0.4 C 0 km/h
386 22-11-2008 05:12:04 0.5 C 3.86 g/m*3 0.5 C 0 km/h
387 22-11-2008 05:24:04 0.6 C 3.89 g/m*3 0.6 C 0 km/h
388 22-11-2008 05:36:04 0.7 C 4.02 g/m*3 0.7 C 0 km/h
389 22-11-2008 05:48:04 0.3 C 4.11 g/m*3 0.3 C 0 km/h
390 22-11-2008 06:00:04 -0.1 C 4.19 g/m*3 -0.1 C 0 km/h
391 22-11-2008 06:12:04 -0.2 C 4.25 g/m*3 -0.2 C 0 km/h
392 22-11-2008 06:24:04 -0.1 C 4.28 g/m*3 -0.1 C 0 km/h
393 22-11-2008 06:36:05 0 C 4.26 g/m*3 0 C 0 km/h
394 22-11-2008 06:48:05 0 C 4.22 g/m*3 0 C 0 km/h
395 22-11-2008 07:00:05 0.1 C 4.1 g/m*3 0.1 C 0 km/h
396 22-11-2008 07:12:05 0.1 C 4 g/m*3 0.1 C 0 km/h
397 22-11-2008 07:24:05 0 C 3.92 g/m*3 0 C 0 km/h
398 22-11-2008 07:36:05 0.3 C 3.81 g/m*3 0.3 C 0 km/h
399 22-11-2008 07:48:05 0.2 C 3.78 g/m*3 0.2 C 0 km/h
400 22-11-2008 08:00:05 0.4 C 3.79 g/m*3 0.4 C 0 km/h
Sensor: Nr:Datum:Temp:Abs-Feuchte:Windchill:Wind:
Aussen-T/F 401 22-11-2008 08:12:05 -0.1 C 3.66 g/m*3 -0.1 C 0 km/h
402 22-11-2008 08:24:05 -0.2 C 3.68 g/m*3 -0.2 C 0 km/h
403 22-11-2008 08:36:05 0.2 C 3.73 g/m*3 0.2 C 0 km/h
404 22-11-2008 08:48:05 0.4 C 3.64 g/m*3 0.4 C 0 km/h
405 22-11-2008 09:00:05 0.5 C 3.61 g/m*3 0.5 C 0 km/h
406 22-11-2008 09:12:03 0.6 C 3.64 g/m*3 0.6 C 0 km/h
407 22-11-2008 09:24:03 0.8 C 3.74 g/m*3 0.8 C 0 km/h
408 22-11-2008 09:36:03 0.9 C 3.71 g/m*3 0.9 C 0 km/h
409 22-11-2008 09:48:02 0.7 C 3.71 g/m*3 0.7 C 0 km/h
410 22-11-2008 10:00:02 0.7 C 3.71 g/m*3 0.7 C 0 km/h
411 22-11-2008 10:12:03 0.8 C 3.74 g/m*3 0.8 C 0 km/h
412 22-11-2008 10:24:02 1 C 3.63 g/m*3 1 C 0 km/h
413 22-11-2008 10:36:03 1.2 C 3.63 g/m*3 1.2 C 0 km/h
414 22-11-2008 10:48:02 1.5 C 3.65 g/m*3 1.5 C 0 km/h
415 22-11-2008 11:00:02 1.6 C 3.62 g/m*3 1.6 C 0 km/h
416 22-11-2008 11:12:02 1.5 C 3.6 g/m*3 1.5 C 0 km/h
417 22-11-2008 11:24:02 1.5 C 3.65 g/m*3 1.5 C 0 km/h
418 22-11-2008 11:36:01 1.9 C 3.7 g/m*3 1.9 C 0 km/h
419 22-11-2008 11:48:02 2.1 C 3.64 g/m*3 2.1 C 0 km/h
420 22-11-2008 12:00:02 1.7 C 3.81 g/m*3 1.7 C 0 km/h
421 22-11-2008 12:12:01 1 C 4.1 g/m*3 1 C 0 km/h
422 22-11-2008 12:24:02 1.7 C 4.03 g/m*3 1.7 C 0 km/h
423 22-11-2008 12:36:01 1.9 C 3.86 g/m*3 1.9 C 0 km/h
424 22-11-2008 12:48:02 2.2 C 3.72 g/m*3 2.2 C 0 km/h
425 22-11-2008 13:00:02 2.2 C 3.72 g/m*3 2.2 C 0 km/h
Sensor: Nr:Datum:Temp:Abs-Feuchte:Windchill:Wind:
Aussen-T/F 426 22-11-2008 13:12:01 2.3 C 3.69 g/m*3 2.3 C 0 km/h
427 22-11-2008 13:24:02 2.2 C 3.72 g/m*3 2.2 C 0 km/h
428 22-11-2008 13:36:01 2 C 3.67 g/m*3 2 C 0 km/h
429 22-11-2008 13:48:01 2.2 C 3.72 g/m*3 2.2 C 0 km/h
430 22-11-2008 14:00:01 2.2 C 3.72 g/m*3 2.2 C 0 km/h
431 22-11-2008 14:12:02 2.3 C 3.63 g/m*3 2.3 C 0 km/h
432 22-11-2008 14:24:02 2.5 C 3.74 g/m*3 2.5 C 0 km/h
433 22-11-2008 14:36:01 2.6 C 3.59 g/m*3 2.6 C 0 km/h
434 22-11-2008 14:48:02 2.5 C 3.39 g/m*3 2.5 C 0 km/h
435 22-11-2008 15:00:02 2.6 C 3.47 g/m*3 2.6 C 0 km/h
436 22-11-2008 15:12:02 2.5 C 3.33 g/m*3 2.5 C 0 km/h
437 22-11-2008 15:24:01 2.5 C 3.28 g/m*3 2.5 C 0 km/h
438 22-11-2008 15:36:02 2.2 C 3.27 g/m*3 2.2 C 0 km/h
439 22-11-2008 15:48:02 2.2 C 3.27 g/m*3 2.2 C 0 km/h
440 22-11-2008 16:00:02 2.4 C 3.2 g/m*3 2.4 C 0 km/h
441 22-11-2008 16:12:02 2.3 C 3.23 g/m*3 2.3 C 0 km/h
442 22-11-2008 16:24:02 2.1 C 3.3 g/m*3 2.1 C 0 km/h
443 22-11-2008 16:36:03 1.8 C 3.4 g/m*3 1.8 C 0 km/h
444 22-11-2008 16:48:02 1.6 C 3.46 g/m*3 1.6 C 0 km/h
445 22-11-2008 17:00:02 1.3 C 3.44 g/m*3 1.3 C 0 km/h
446 22-11-2008 17:12:03 1.3 C 3.5 g/m*3 1.3 C 0 km/h
447 22-11-2008 17:24:02 1.5 C 3.54 g/m*3 1.5 C 0 km/h
448 22-11-2008 17:36:03 1.5 C 3.54 g/m*3 1.5 C 0 km/h
449 22-11-2008 17:48:02 1.5 C 3.54 g/m*3 1.5 C 0 km/h
450 22-11-2008 18:00:02 1.6 C 3.57 g/m*3 1.6 C 0 km/h
Sensor: Nr:Datum:Temp:Abs-Feuchte:Windchill:Wind:
Aussen-T/F 451 22-11-2008 18:12:02 1.7 C 3.54 g/m*3 1.7 C 0 km/h
452 22-11-2008 18:24:02 1.6 C 3.57 g/m*3 1.6 C 0 km/h
453 22-11-2008 18:36:02 1.7 C 3.59 g/m*3 1.7 C 0 km/h
454 22-11-2008 18:48:02 1.6 C 3.62 g/m*3 1.6 C 0 km/h
455 22-11-2008 19:00:02 1.7 C 3.54 g/m*3 1.7 C 0 km/h
456 22-11-2008 19:12:01 1.7 C 3.59 g/m*3 1.7 C 0 km/h
457 22-11-2008 19:24:02 1.4 C 3.57 g/m*3 1.4 C 0 km/h
458 22-11-2008 19:36:01 1.4 C 3.63 g/m*3 1.4 C 0 km/h
459 22-11-2008 19:48:02 1.1 C 3.5 g/m*3 1.1 C 0 km/h
460 22-11-2008 20:00:02 0.7 C 3.56 g/m*3 0.7 C 0 km/h
461 22-11-2008 20:12:01 0.9 C 3.61 g/m*3 0.9 C 0 km/h
462 22-11-2008 20:24:02 1.1 C 3.55 g/m*3 1.1 C 0 km/h
463 22-11-2008 20:36:01 1.3 C 3.55 g/m*3 1.3 C 0 km/h
464 22-11-2008 20:48:01 1.3 C 3.6 g/m*3 1.3 C 0 km/h
465 22-11-2008 21:00:01 1.3 C 3.6 g/m*3 1.3 C 0 km/h
466 22-11-2008 21:12:02 1.2 C 3.58 g/m*3 1.2 C 0 km/h
467 22-11-2008 21:24:01 1.1 C 3.55 g/m*3 1.1 C 0 km/h
468 22-11-2008 21:36:01 1 C 3.53 g/m*3 1 C 0 km/h
469 22-11-2008 21:48:01 0.9 C 3.56 g/m*3 0.9 C 0 km/h
470 22-11-2008 22:00:01 0.7 C 3.51 g/m*3 0.7 C 0 km/h
471 22-11-2008 22:12:02 0.8 C 3.58 g/m*3 0.8 C 0 km/h
472 22-11-2008 22:24:01 0.8 C 3.58 g/m*3 0.8 C 0 km/h
473 22-11-2008 22:36:02 1 C 3.53 g/m*3 1 C 0 km/h
474 22-11-2008 22:48:02 1.1 C 3.5 g/m*3 1.1 C 0 km/h
475 22-11-2008 23:00:02 1 C 3.53 g/m*3 1 C 0 km/h
Sensor: Nr:Datum:Temp:Abs-Feuchte:Windchill:Wind:
Aussen-T/F 476 22-11-2008 23:12:03 1 C 3.53 g/m*3 1 C 0 km/h
477 22-11-2008 23:24:02 1.1 C 3.5 g/m*3 1.1 C 0 km/h
478 22-11-2008 23:36:02 1 C 3.53 g/m*3 1 C 0 km/h
479 22-11-2008 23:48:02 0.9 C 3.61 g/m*3 0.9 C 0 km/h
480 23-11-2008 00:00:02 0.8 C 3.58 g/m*3 0.8 C 0 km/h
481 23-11-2008 00:12:02 0.9 C 3.61 g/m*3 0.9 C 0 km/h
482 23-11-2008 00:24:02 0.9 C 3.66 g/m*3 0.9 C 0 km/h
483 23-11-2008 00:36:02 0.8 C 3.74 g/m*3 0.8 C 0 km/h
484 23-11-2008 00:48:02 0.6 C 3.84 g/m*3 0.6 C 0 km/h
485 23-11-2008 01:00:02 0.5 C 3.91 g/m*3 0.5 C 0 km/h
486 23-11-2008 01:12:02 0.4 C 3.93 g/m*3 0.4 C 0 km/h
487 23-11-2008 01:24:02 0.4 C 3.98 g/m*3 0.4 C 0 km/h
488 23-11-2008 01:36:02 0.3 C 4.01 g/m*3 0.3 C 0 km/h
489 23-11-2008 01:48:02 0.1 C 4.05 g/m*3 0.1 C 0 km/h
490 23-11-2008 02:00:02 0.1 C 4.1 g/m*3 0.1 C 0 km/h
491 23-11-2008 02:12:03 0.2 C 4.18 g/m*3 0.2 C 0 km/h
492 23-11-2008 02:24:02 0.2 C 4.22 g/m*3 0.2 C 0 km/h
493 23-11-2008 02:36:03 0.1 C 4.24 g/m*3 0.1 C 0 km/h
494 23-11-2008 02:48:01 0.1 C 4.29 g/m*3 0.1 C 0 km/h
495 23-11-2008 03:00:01 0.2 C 4.37 g/m*3 0.2 C 0 km/h
496 23-11-2008 03:12:01 0.2 C 4.42 g/m*3 0.2 C 0 km/h
497 23-11-2008 03:24:01 0.3 C 4.5 g/m*3 0.3 C 0 km/h
498 23-11-2008 03:36:01 0.3 C 4.5 g/m*3 0.3 C 0 km/h
499 23-11-2008 03:48:01 0.3 C 4.5 g/m*3 0.3 C 0 km/h
500 23-11-2008 04:00:01 0.5 C 4.61 g/m*3 0.5 C 0 km/h
Sensor: Nr:Datum:Temp:Abs-Feuchte:Windchill:Wind:
Aussen-T/F 501 23-11-2008 04:12:02 0.5 C 4.61 g/m*3 0.5 C 0 km/h
502 23-11-2008 04:24:01 0.5 C 4.61 g/m*3 0.5 C 0 km/h
503 23-11-2008 04:36:02 0.5 C 4.61 g/m*3 0.5 C 0 km/h
504 23-11-2008 04:48:01 0.5 C 4.56 g/m*3 0.5 C 0 km/h
505 23-11-2008 05:00:01 0.5 C 4.51 g/m*3 0.5 C 0 km/h
506 23-11-2008 05:12:02 0.6 C 4.49 g/m*3 0.6 C 0 km/h
507 23-11-2008 05:24:01 0.5 C 4.41 g/m*3 0.5 C 0 km/h
508 23-11-2008 05:36:02 0.5 C 4.36 g/m*3 0.5 C 0 km/h
509 23-11-2008 05:48:01 0.5 C 4.36 g/m*3 0.5 C 0 km/h
510 23-11-2008 06:00:01 0.6 C 4.34 g/m*3 0.6 C 0 km/h
511 23-11-2008 06:12:02 0.7 C 4.37 g/m*3 0.7 C 0 km/h
512 23-11-2008 06:24:01 0.7 C 4.37 g/m*3 0.7 C 0 km/h
513 23-11-2008 06:36:02 0.6 C 4.34 g/m*3 0.6 C 0 km/h
514 23-11-2008 06:48:01 0.6 C 4.34 g/m*3 0.6 C 0 km/h
515 23-11-2008 07:00:02 0.6 C 4.39 g/m*3 0.6 C 0 km/h
516 23-11-2008 07:12:01 0.6 C 4.39 g/m*3 0.6 C 0 km/h
517 23-11-2008 07:24:01 0.6 C 4.44 g/m*3 0.6 C 0 km/h
518 23-11-2008 07:36:01 0.6 C 4.44 g/m*3 0.6 C 0 km/h
519 23-11-2008 07:48:01 0.6 C 4.44 g/m*3 0.6 C 0 km/h
520 23-11-2008 08:00:01 0.6 C 4.49 g/m*3 0.6 C 0 km/h
521 23-11-2008 08:12:02 0.7 C 4.53 g/m*3 0.7 C 0 km/h
522 23-11-2008 08:24:02 0.7 C 4.53 g/m*3 0.7 C 0 km/h
523 23-11-2008 08:36:01 0.8 C 4.56 g/m*3 0.8 C 0 km/h
524 23-11-2008 08:48:01 0.7 C 4.53 g/m*3 0.7 C 0 km/h
525 23-11-2008 09:00:01 0.8 C 4.56 g/m*3 0.8 C 0 km/h
Sensor: Nr:Datum:Temp:Abs-Feuchte:Windchill:Wind:
Aussen-T/F 526 23-11-2008 09:12:02 1.1 C 4.55 g/m*3 1.1 C 0 km/h
527 23-11-2008 09:24:01 1.2 C 4.42 g/m*3 1.2 C 0 km/h
528 23-11-2008 09:36:01 1.5 C 4.4 g/m*3 1.5 C 0 km/h
529 23-11-2008 09:48:01 1.6 C 4.33 g/m*3 1.6 C 0 km/h
530 23-11-2008 10:00:01 1.7 C 4.3 g/m*3 1.7 C 0 km/h
531 23-11-2008 10:12:02 1.9 C 4.25 g/m*3 1.9 C 0 km/h
532 23-11-2008 10:24:01 2.1 C 4.2 g/m*3 2.1 C 0 km/h
533 23-11-2008 10:36:02 2 C 4.11 g/m*3 2 C 0 km/h
534 23-11-2008 10:48:02 2.1 C 4.03 g/m*3 2.1 C 0 km/h
535 23-11-2008 11:00:02 2.2 C 4 g/m*3 2.2 C 0 km/h
536 23-11-2008 11:12:01 2.4 C 4 g/m*3 2.4 C 0 km/h
537 23-11-2008 11:24:02 2.5 C 3.97 g/m*3 2.5 C 0 km/h
538 23-11-2008 11:36:02 2.6 C 3.99 g/m*3 2.6 C 0 km/h
539 23-11-2008 11:48:02 2.6 C 3.94 g/m*3 2.6 C 0 km/h
540 23-11-2008 12:00:02 2.5 C 3.85 g/m*3 2.5 C 0 km/h
541 23-11-2008 12:12:01 2.4 C 3.83 g/m*3 2.4 C 0 km/h
542 23-11-2008 12:24:02 2.4 C 3.83 g/m*3 2.4 C 0 km/h
543 23-11-2008 12:36:02 2.2 C 3.83 g/m*3 2.2 C 0 km/h
544 23-11-2008 12:48:02 2.3 C 3.91 g/m*3 2.3 C 0 km/h
545 23-11-2008 13:00:02 2.3 C 3.86 g/m*3 2.3 C 0 km/h
546 23-11-2008 13:12:01 2.1 C 3.69 g/m*3 2.1 C 0 km/h
547 23-11-2008 13:24:02 1.8 C 3.67 g/m*3 1.8 C 0 km/h
548 23-11-2008 13:36:01 2 C 3.72 g/m*3 2 C 0 km/h
549 23-11-2008 13:48:02 2 C 3.72 g/m*3 2 C 0 km/h
550 23-11-2008 14:00:02 2 C 3.61 g/m*3 2 C 0 km/h
Sensor: Nr:Datum:Temp:Abs-Feuchte:Windchill:Wind:
Aussen-T/F 551 23-11-2008 14:12:02 1.8 C 3.56 g/m*3 1.8 C 0 km/h
552 23-11-2008 14:24:02 1.7 C 3.48 g/m*3 1.7 C 0 km/h
553 23-11-2008 14:36:01 1.6 C 3.46 g/m*3 1.6 C 0 km/h
554 23-11-2008 14:48:01 1.6 C 3.46 g/m*3 1.6 C 0 km/h
555 23-11-2008 15:00:01 1.6 C 3.41 g/m*3 1.6 C 0 km/h
556 23-11-2008 15:12:02 1.6 C 3.41 g/m*3 1.6 C 0 km/h
557 23-11-2008 15:24:02 1.6 C 3.46 g/m*3 1.6 C 0 km/h
558 23-11-2008 15:36:01 1.5 C 3.44 g/m*3 1.5 C 0 km/h
559 23-11-2008 15:48:01 1.5 C 3.44 g/m*3 1.5 C 0 km/h
560 23-11-2008 16:00:01 1.5 C 3.44 g/m*3 1.5 C 0 km/h
561 23-11-2008 16:12:02 1.4 C 3.52 g/m*3 1.4 C 0 km/h
562 23-11-2008 16:24:02 1.2 C 3.47 g/m*3 1.2 C 0 km/h
563 23-11-2008 16:36:02 1.2 C 3.53 g/m*3 1.2 C 0 km/h
564 23-11-2008 16:48:02 1.1 C 3.55 g/m*3 1.1 C 0 km/h
565 23-11-2008 17:00:02 1 C 3.58 g/m*3 1 C 0 km/h
566 23-11-2008 17:12:01 0.8 C 3.74 g/m*3 0.8 C 0 km/h
567 23-11-2008 17:24:02 0.5 C 3.86 g/m*3 0.5 C 0 km/h
568 23-11-2008 17:36:01 0.3 C 4.01 g/m*3 0.3 C 0 km/h
569 23-11-2008 17:48:02 0.1 C 4.15 g/m*3 0.1 C 0 km/h
570 23-11-2008 18:00:02 0.1 C 4.2 g/m*3 0.1 C 0 km/h
571 23-11-2008 18:12:01 0 C 4.22 g/m*3 0 C 0 km/h
572 23-11-2008 18:24:02 0 C 4.26 g/m*3 0 C 0 km/h
573 23-11-2008 18:36:01 0 C 4.26 g/m*3 0 C 0 km/h
574 23-11-2008 18:48:01 0 C 4.26 g/m*3 0 C 0 km/h
575 23-11-2008 19:00:01 -0.1 C 4.23 g/m*3 -0.1 C 0 km/h
Sensor: Nr:Datum:Temp:Abs-Feuchte:Windchill:Wind:
Aussen-T/F 576 23-11-2008 19:12:02 -0.2 C 4.21 g/m*3 -0.2 C 0 km/h
577 23-11-2008 19:24:01 -0.2 C 4.16 g/m*3 -0.2 C 0 km/h
578 23-11-2008 19:36:02 -0.2 C 4.16 g/m*3 -0.2 C 0 km/h
579 23-11-2008 19:48:01 -0.2 C 4.16 g/m*3 -0.2 C 0 km/h
580 23-11-2008 20:00:01 -0.2 C 4.16 g/m*3 -0.2 C 0 km/h
581 23-11-2008 20:12:02 -0.2 C 4.21 g/m*3 -0.2 C 0 km/h
582 23-11-2008 20:24:01 -0.2 C 4.21 g/m*3 -0.2 C 0 km/h
583 23-11-2008 20:36:02 -0.2 C 4.16 g/m*3 -0.2 C 0 km/h
584 23-11-2008 20:48:01 -0.1 C 4.19 g/m*3 -0.1 C 0 km/h
585 23-11-2008 21:00:01 -0.1 C 4.19 g/m*3 -0.1 C 0 km/h
586 23-11-2008 21:12:01 -0.1 C 4.19 g/m*3 -0.1 C 0 km/h
587 23-11-2008 21:24:01 -0.1 C 4.14 g/m*3 -0.1 C 0 km/h
588 23-11-2008 21:36:01 -0.1 C 4.14 g/m*3 -0.1 C 0 km/h
589 23-11-2008 21:49:02 0 C 4.17 g/m*3 0 C 0 km/h
590 23-11-2008 22:01:02 0 C 4.17 g/m*3 0 C 0 km/h
591 23-11-2008 22:13:02 0.1 C 4.2 g/m*3 0.1 C 0 km/h
592 23-11-2008 22:25:02 0.1 C 4.15 g/m*3 0.1 C 0 km/h
593 23-11-2008 22:37:02 0.1 C 4.15 g/m*3 0.1 C 0 km/h
594 23-11-2008 22:49:02 0.1 C 4.15 g/m*3 0.1 C 0 km/h
595 23-11-2008 23:01:02 0.2 C 4.18 g/m*3 0.2 C 0 km/h
596 23-11-2008 23:13:02 0.2 C 4.18 g/m*3 0.2 C 0 km/h
597 23-11-2008 23:25:02 0.2 C 4.22 g/m*3 0.2 C 0 km/h
598 23-11-2008 23:37:02 0.1 C 4.2 g/m*3 0.1 C 0 km/h
599 23-11-2008 23:49:02 0.2 C 4.27 g/m*3 0.2 C 0 km/h

Legende:
   Min
   Max


Maximal/Minimal-Werte vom 17.04.2019 - 19.05.2019

Sensor Min Max Avg
Temp
(Aussen-T/F)
2.2 °C
13-05-2019  06:50:00
26.6 °C
24-04-2019  17:05:00
11.51 °C

Die Daten stammen von einer Davis Vantage Pro 2 Wetter-Station und werden unter Linux mit der Software wview2wettercgi und aufbereitet. Alle Angaben erfolgen ohne Gewähr für ihre Vollständigkeit oder Richtigkeit.
Kontakt: Rainer Krienke krienke@uni-koblenz.de . Meine Webseiten an der Uni Koblenz oder privat.
Version: $Revision: 0.78 $